sensor_id;sensor_type;location;lat;lon;timestamp;temperature;humidity
16736;DHT22;17990;49.548;9.730;2023-11-22T00:01:50;5.10;99.90
16736;DHT22;17990;49.548;9.730;2023-11-22T00:04:17;5.10;99.90
16736;DHT22;17990;49.548;9.730;2023-11-22T00:06:44;5.00;99.90
16736;DHT22;17990;49.548;9.730;2023-11-22T00:09:12;5.00;99.90
16736;DHT22;17990;49.548;9.730;2023-11-22T00:11:40;5.00;99.90
16736;DHT22;17990;49.548;9.730;2023-11-22T00:14:06;4.90;99.90
16736;DHT22;17990;49.548;9.730;2023-11-22T00:16:33;4.90;99.90
16736;DHT22;17990;49.548;9.730;2023-11-22T00:19:02;4.90;99.90
16736;DHT22;17990;49.548;9.730;2023-11-22T00:21:30;4.90;99.90
16736;DHT22;17990;49.548;9.730;2023-11-22T00:23:57;4.80;99.90
16736;DHT22;17990;49.548;9.730;2023-11-22T00:26:25;4.90;99.90
16736;DHT22;17990;49.548;9.730;2023-11-22T00:28:52;4.90;99.90
16736;DHT22;17990;49.548;9.730;2023-11-22T00:31:19;4.90;99.90
16736;DHT22;17990;49.548;9.730;2023-11-22T00:33:46;4.90;99.90
16736;DHT22;17990;49.548;9.730;2023-11-22T00:36:13;4.80;99.90
16736;DHT22;17990;49.548;9.730;2023-11-22T00:38:39;4.90;99.90
16736;DHT22;17990;49.548;9.730;2023-11-22T00:41:06;4.90;99.90
16736;DHT22;17990;49.548;9.730;2023-11-22T00:43:34;4.90;99.90
16736;DHT22;17990;49.548;9.730;2023-11-22T00:46:01;4.90;99.90
16736;DHT22;17990;49.548;9.730;2023-11-22T00:48:28;5.00;99.90
16736;DHT22;17990;49.548;9.730;2023-11-22T00:50:54;5.00;99.90
16736;DHT22;17990;49.548;9.730;2023-11-22T00:53:21;5.00;99.90
16736;DHT22;17990;49.548;9.730;2023-11-22T00:55:48;5.00;99.90
16736;DHT22;17990;49.548;9.730;2023-11-22T00:58:15;4.90;99.90
16736;DHT22;17990;49.548;9.730;2023-11-22T01:00:44;4.90;99.90
16736;DHT22;17990;49.548;9.730;2023-11-22T01:03:10;4.70;99.90
16736;DHT22;17990;49.548;9.730;2023-11-22T01:05:38;4.50;99.90
16736;DHT22;17990;49.548;9.730;2023-11-22T01:08:04;4.20;99.90
16736;DHT22;17990;49.548;9.730;2023-11-22T01:10:31;4.00;99.90
16736;DHT22;17990;49.548;9.730;2023-11-22T01:12:58;3.90;99.90
16736;DHT22;17990;49.548;9.730;2023-11-22T01:15:24;3.70;99.90
16736;DHT22;17990;49.548;9.730;2023-11-22T01:17:53;3.70;99.90
16736;DHT22;17990;49.548;9.730;2023-11-22T01:20:20;3.70;99.90
16736;DHT22;17990;49.548;9.730;2023-11-22T01:22:48;3.70;99.90
16736;DHT22;17990;49.548;9.730;2023-11-22T01:25:14;3.70;99.90
16736;DHT22;17990;49.548;9.730;2023-11-22T01:27:41;3.80;99.90
16736;DHT22;17990;49.548;9.730;2023-11-22T01:30:08;3.80;99.90
16736;DHT22;17990;49.548;9.730;2023-11-22T01:32:35;3.90;99.90
16736;DHT22;17990;49.548;9.730;2023-11-22T01:35:04;3.90;99.90
16736;DHT22;17990;49.548;9.730;2023-11-22T01:37:31;4.00;99.90
16736;DHT22;17990;49.548;9.730;2023-11-22T01:39:58;4.00;99.90
16736;DHT22;17990;49.548;9.730;2023-11-22T01:42:25;4.00;99.90
16736;DHT22;17990;49.548;9.730;2023-11-22T01:44:52;4.00;99.90
16736;DHT22;17990;49.548;9.730;2023-11-22T01:47:19;4.10;99.90
16736;DHT22;17990;49.548;9.730;2023-11-22T01:49:46;4.10;99.90
16736;DHT22;17990;49.548;9.730;2023-11-22T01:52:14;4.10;99.90
16736;DHT22;17990;49.548;9.730;2023-11-22T01:54:41;4.10;99.90
16736;DHT22;17990;49.548;9.730;2023-11-22T01:57:10;4.20;99.90
16736;DHT22;17990;49.548;9.730;2023-11-22T01:59:38;4.10;99.90
16736;DHT22;17990;49.548;9.730;2023-11-22T02:02:05;4.10;99.90
16736;DHT22;17990;49.548;9.730;2023-11-22T02:04:32;4.10;99.90
16736;DHT22;17990;49.548;9.730;2023-11-22T02:06:59;4.20;99.90
16736;DHT22;17990;49.548;9.730;2023-11-22T02:09:27;4.20;99.90
16736;DHT22;17990;49.548;9.730;2023-11-22T02:11:54;4.20;99.90
16736;DHT22;17990;49.548;9.730;2023-11-22T02:14:20;4.30;99.90
16736;DHT22;17990;49.548;9.730;2023-11-22T02:16:48;4.30;99.90
16736;DHT22;17990;49.548;9.730;2023-11-22T02:19:16;4.30;99.90
16736;DHT22;17990;49.548;9.730;2023-11-22T02:21:43;4.20;99.90
16736;DHT22;17990;49.548;9.730;2023-11-22T02:24:12;4.20;99.90
16736;DHT22;17990;49.548;9.730;2023-11-22T02:26:43;4.30;99.90
16736;DHT22;17990;49.548;9.730;2023-11-22T02:29:11;4.20;99.90
16736;DHT22;17990;49.548;9.730;2023-11-22T02:31:41;4.20;99.90
16736;DHT22;17990;49.548;9.730;2023-11-22T02:34:08;4.20;99.90
16736;DHT22;17990;49.548;9.730;2023-11-22T02:36:35;4.20;99.90
16736;DHT22;17990;49.548;9.730;2023-11-22T02:39:02;4.30;99.90
16736;DHT22;17990;49.548;9.730;2023-11-22T02:41:30;4.30;99.90
16736;DHT22;17990;49.548;9.730;2023-11-22T02:43:57;4.30;99.90
16736;DHT22;17990;49.548;9.730;2023-11-22T02:46:24;4.30;99.90
16736;DHT22;17990;49.548;9.730;2023-11-22T02:48:51;4.30;99.90
16736;DHT22;17990;49.548;9.730;2023-11-22T02:51:19;4.30;99.90
16736;DHT22;17990;49.548;9.730;2023-11-22T02:53:46;4.30;99.90
16736;DHT22;17990;49.548;9.730;2023-11-22T02:56:14;4.30;99.90
16736;DHT22;17990;49.548;9.730;2023-11-22T02:58:42;4.30;99.90
16736;DHT22;17990;49.548;9.730;2023-11-22T03:01:09;4.30;99.90
16736;DHT22;17990;49.548;9.730;2023-11-22T03:03:35;4.30;99.90
16736;DHT22;17990;49.548;9.730;2023-11-22T03:06:03;4.30;99.90
16736;DHT22;17990;49.548;9.730;2023-11-22T03:08:30;4.30;99.90
16736;DHT22;17990;49.548;9.730;2023-11-22T03:11:00;4.30;99.90
16736;DHT22;17990;49.548;9.730;2023-11-22T03:13:27;4.30;99.90
16736;DHT22;17990;49.548;9.730;2023-11-22T03:15:57;4.30;99.90
16736;DHT22;17990;49.548;9.730;2023-11-22T03:18:23;4.30;99.90
16736;DHT22;17990;49.548;9.730;2023-11-22T03:20:51;4.30;99.90
16736;DHT22;17990;49.548;9.730;2023-11-22T03:23:20;4.30;99.90
16736;DHT22;17990;49.548;9.730;2023-11-22T03:25:47;4.30;99.90
16736;DHT22;17990;49.548;9.730;2023-11-22T03:28:13;4.30;99.90
16736;DHT22;17990;49.548;9.730;2023-11-22T03:30:40;4.30;99.90
16736;DHT22;17990;49.548;9.730;2023-11-22T03:33:08;4.30;99.90
16736;DHT22;17990;49.548;9.730;2023-11-22T03:35:35;4.30;99.90
16736;DHT22;17990;49.548;9.730;2023-11-22T03:38:02;4.30;99.90
16736;DHT22;17990;49.548;9.730;2023-11-22T03:40:28;4.30;99.90
16736;DHT22;17990;49.548;9.730;2023-11-22T03:42:55;4.30;99.90
16736;DHT22;17990;49.548;9.730;2023-11-22T03:45:22;4.20;99.90
16736;DHT22;17990;49.548;9.730;2023-11-22T03:47:49;4.20;99.90
16736;DHT22;17990;49.548;9.730;2023-11-22T03:50:17;4.20;99.90
16736;DHT22;17990;49.548;9.730;2023-11-22T03:52:44;4.20;99.90
16736;DHT22;17990;49.548;9.730;2023-11-22T03:55:12;4.20;99.90
16736;DHT22;17990;49.548;9.730;2023-11-22T03:57:39;4.20;99.90
16736;DHT22;17990;49.548;9.730;2023-11-22T04:00:06;4.10;99.90
16736;DHT22;17990;49.548;9.730;2023-11-22T04:02:35;4.10;99.90
16736;DHT22;17990;49.548;9.730;2023-11-22T04:05:01;4.10;99.90
16736;DHT22;17990;49.548;9.730;2023-11-22T04:07:29;4.10;99.90
16736;DHT22;17990;49.548;9.730;2023-11-22T04:09:56;4.00;99.90
16736;DHT22;17990;49.548;9.730;2023-11-22T04:12:23;4.00;99.90
16736;DHT22;17990;49.548;9.730;2023-11-22T04:14:50;4.00;99.90
16736;DHT22;17990;49.548;9.730;2023-11-22T04:17:17;4.00;99.90
16736;DHT22;17990;49.548;9.730;2023-11-22T04:19:44;3.90;99.90
16736;DHT22;17990;49.548;9.730;2023-11-22T04:22:11;3.90;99.90
16736;DHT22;17990;49.548;9.730;2023-11-22T04:24:39;3.80;99.90
16736;DHT22;17990;49.548;9.730;2023-11-22T04:27:06;3.80;99.90
16736;DHT22;17990;49.548;9.730;2023-11-22T04:29:32;3.70;99.90
16736;DHT22;17990;49.548;9.730;2023-11-22T04:31:59;3.70;99.90
16736;DHT22;17990;49.548;9.730;2023-11-22T04:34:26;3.70;99.90
16736;DHT22;17990;49.548;9.730;2023-11-22T04:36:53;3.70;99.90
16736;DHT22;17990;49.548;9.730;2023-11-22T04:39:20;3.60;99.90
16736;DHT22;17990;49.548;9.730;2023-11-22T04:41:48;3.50;99.90
16736;DHT22;17990;49.548;9.730;2023-11-22T04:44:14;3.50;99.90
16736;DHT22;17990;49.548;9.730;2023-11-22T04:46:41;3.30;99.90
16736;DHT22;17990;49.548;9.730;2023-11-22T04:49:08;3.20;99.90
16736;DHT22;17990;49.548;9.730;2023-11-22T04:51:35;3.20;99.90
16736;DHT22;17990;49.548;9.730;2023-11-22T04:54:02;3.10;99.90
16736;DHT22;17990;49.548;9.730;2023-11-22T04:56:29;2.90;99.90
16736;DHT22;17990;49.548;9.730;2023-11-22T04:58:57;2.90;99.90
16736;DHT22;17990;49.548;9.730;2023-11-22T05:01:24;2.80;99.90
16736;DHT22;17990;49.548;9.730;2023-11-22T05:03:50;2.70;99.90
16736;DHT22;17990;49.548;9.730;2023-11-22T05:06:17;2.70;99.90
16736;DHT22;17990;49.548;9.730;2023-11-22T05:08:44;2.60;99.90
16736;DHT22;17990;49.548;9.730;2023-11-22T05:11:11;2.50;99.90
16736;DHT22;17990;49.548;9.730;2023-11-22T05:13:37;2.50;99.90
16736;DHT22;17990;49.548;9.730;2023-11-22T05:16:06;2.40;99.90
16736;DHT22;17990;49.548;9.730;2023-11-22T05:18:33;2.40;99.90
16736;DHT22;17990;49.548;9.730;2023-11-22T05:21:01;2.40;99.90
16736;DHT22;17990;49.548;9.730;2023-11-22T05:23:28;2.30;99.90
16736;DHT22;17990;49.548;9.730;2023-11-22T05:25:55;2.30;99.90
16736;DHT22;17990;49.548;9.730;2023-11-22T05:28:22;2.20;99.90
16736;DHT22;17990;49.548;9.730;2023-11-22T05:30:49;2.20;99.90
16736;DHT22;17990;49.548;9.730;2023-11-22T05:33:17;2.30;99.90
16736;DHT22;17990;49.548;9.730;2023-11-22T05:35:44;2.20;99.90
16736;DHT22;17990;49.548;9.730;2023-11-22T05:38:10;2.20;99.90
16736;DHT22;17990;49.548;9.730;2023-11-22T05:40:37;2.20;99.90
16736;DHT22;17990;49.548;9.730;2023-11-22T05:43:04;2.10;99.90
16736;DHT22;17990;49.548;9.730;2023-11-22T05:45:33;2.10;99.90
16736;DHT22;17990;49.548;9.730;2023-11-22T05:48:00;2.10;99.90
16736;DHT22;17990;49.548;9.730;2023-11-22T05:50:28;2.00;99.90
16736;DHT22;17990;49.548;9.730;2023-11-22T05:52:54;2.00;99.90
16736;DHT22;17990;49.548;9.730;2023-11-22T05:55:22;2.00;99.90
16736;DHT22;17990;49.548;9.730;2023-11-22T05:57:49;2.00;99.90
16736;DHT22;17990;49.548;9.730;2023-11-22T06:00:16;2.00;99.90
16736;DHT22;17990;49.548;9.730;2023-11-22T06:02:42;2.00;99.90
16736;DHT22;17990;49.548;9.730;2023-11-22T06:05:09;1.90;99.90
16736;DHT22;17990;49.548;9.730;2023-11-22T06:07:38;1.90;99.90
16736;DHT22;17990;49.548;9.730;2023-11-22T06:10:05;1.90;99.90
16736;DHT22;17990;49.548;9.730;2023-11-22T06:12:32;1.90;99.90
16736;DHT22;17990;49.548;9.730;2023-11-22T06:14:58;2.00;99.90
16736;DHT22;17990;49.548;9.730;2023-11-22T06:17:25;2.00;99.90
16736;DHT22;17990;49.548;9.730;2023-11-22T06:19:52;2.00;99.90
16736;DHT22;17990;49.548;9.730;2023-11-22T06:22:19;2.00;99.90
16736;DHT22;17990;49.548;9.730;2023-11-22T06:24:48;1.90;99.90
16736;DHT22;17990;49.548;9.730;2023-11-22T06:27:14;2.00;99.90
16736;DHT22;17990;49.548;9.730;2023-11-22T06:29:41;1.90;99.90
16736;DHT22;17990;49.548;9.730;2023-11-22T06:32:09;1.90;99.90
16736;DHT22;17990;49.548;9.730;2023-11-22T06:34:36;1.90;99.90
16736;DHT22;17990;49.548;9.730;2023-11-22T06:37:03;2.00;99.90
16736;DHT22;17990;49.548;9.730;2023-11-22T06:39:29;2.00;99.90
16736;DHT22;17990;49.548;9.730;2023-11-22T06:41:57;2.00;99.90
16736;DHT22;17990;49.548;9.730;2023-11-22T06:44:24;2.00;99.90
16736;DHT22;17990;49.548;9.730;2023-11-22T06:46:51;1.90;99.90
16736;DHT22;17990;49.548;9.730;2023-11-22T06:49:19;2.00;99.90
16736;DHT22;17990;49.548;9.730;2023-11-22T06:51:46;1.90;99.90
16736;DHT22;17990;49.548;9.730;2023-11-22T06:54:13;1.90;99.90
16736;DHT22;17990;49.548;9.730;2023-11-22T06:56:39;1.90;99.90
16736;DHT22;17990;49.548;9.730;2023-11-22T06:59:07;2.00;99.90
16736;DHT22;17990;49.548;9.730;2023-11-22T07:01:34;2.00;99.90
16736;DHT22;17990;49.548;9.730;2023-11-22T07:04:01;2.00;99.90
16736;DHT22;17990;49.548;9.730;2023-11-22T07:06:29;2.00;99.90
16736;DHT22;17990;49.548;9.730;2023-11-22T07:08:56;2.00;99.90
16736;DHT22;17990;49.548;9.730;2023-11-22T07:11:24;2.00;99.90
16736;DHT22;17990;49.548;9.730;2023-11-22T07:13:51;2.00;99.90
16736;DHT22;17990;49.548;9.730;2023-11-22T07:16:20;2.00;99.90
16736;DHT22;17990;49.548;9.730;2023-11-22T07:18:46;2.00;99.90
16736;DHT22;17990;49.548;9.730;2023-11-22T07:21:13;2.00;99.90
16736;DHT22;17990;49.548;9.730;2023-11-22T07:23:40;2.00;99.90
16736;DHT22;17990;49.548;9.730;2023-11-22T07:26:13;2.00;99.90
16736;DHT22;17990;49.548;9.730;2023-11-22T07:28:39;2.10;99.90
16736;DHT22;17990;49.548;9.730;2023-11-22T07:31:07;2.10;99.90
16736;DHT22;17990;49.548;9.730;2023-11-22T07:33:36;2.10;99.90
16736;DHT22;17990;49.548;9.730;2023-11-22T07:36:04;2.20;99.90
16736;DHT22;17990;49.548;9.730;2023-11-22T07:38:31;2.20;99.90
16736;DHT22;17990;49.548;9.730;2023-11-22T07:40:59;2.30;99.90
16736;DHT22;17990;49.548;9.730;2023-11-22T07:43:26;2.20;99.90
16736;DHT22;17990;49.548;9.730;2023-11-22T07:45:53;2.20;99.90
16736;DHT22;17990;49.548;9.730;2023-11-22T07:48:20;2.20;99.90
16736;DHT22;17990;49.548;9.730;2023-11-22T07:50:49;2.20;99.90
16736;DHT22;17990;49.548;9.730;2023-11-22T07:53:17;2.20;99.90
16736;DHT22;17990;49.548;9.730;2023-11-22T07:55:44;2.20;99.90
16736;DHT22;17990;49.548;9.730;2023-11-22T07:58:11;2.20;99.90
16736;DHT22;17990;49.548;9.730;2023-11-22T08:00:37;2.20;99.90
16736;DHT22;17990;49.548;9.730;2023-11-22T08:03:07;2.20;99.90
16736;DHT22;17990;49.548;9.730;2023-11-22T08:05:34;2.20;99.90
16736;DHT22;17990;49.548;9.730;2023-11-22T08:08:03;2.30;99.90
16736;DHT22;17990;49.548;9.730;2023-11-22T08:10:33;2.30;99.90
16736;DHT22;17990;49.548;9.730;2023-11-22T08:13:00;2.40;99.90
16736;DHT22;17990;49.548;9.730;2023-11-22T08:15:28;2.30;99.90
16736;DHT22;17990;49.548;9.730;2023-11-22T08:17:57;2.30;99.90
16736;DHT22;17990;49.548;9.730;2023-11-22T08:20:23;2.40;99.90
16736;DHT22;17990;49.548;9.730;2023-11-22T08:22:51;2.50;99.90
16736;DHT22;17990;49.548;9.730;2023-11-22T08:25:19;2.60;99.90
16736;DHT22;17990;49.548;9.730;2023-11-22T08:27:45;2.60;99.90
16736;DHT22;17990;49.548;9.730;2023-11-22T08:30:12;2.50;99.90
16736;DHT22;17990;49.548;9.730;2023-11-22T08:32:41;2.50;99.90
16736;DHT22;17990;49.548;9.730;2023-11-22T08:35:08;2.60;99.90
16736;DHT22;17990;49.548;9.730;2023-11-22T08:37:36;2.60;99.90
16736;DHT22;17990;49.548;9.730;2023-11-22T08:40:06;2.70;99.90
16736;DHT22;17990;49.548;9.730;2023-11-22T08:42:34;2.60;99.90
16736;DHT22;17990;49.548;9.730;2023-11-22T08:45:02;2.60;99.90
16736;DHT22;17990;49.548;9.730;2023-11-22T08:47:29;2.60;99.90
16736;DHT22;17990;49.548;9.730;2023-11-22T08:49:56;2.70;99.90
16736;DHT22;17990;49.548;9.730;2023-11-22T08:52:23;2.70;99.90
16736;DHT22;17990;49.548;9.730;2023-11-22T08:54:50;2.80;99.90
16736;DHT22;17990;49.548;9.730;2023-11-22T08:57:18;2.80;99.90
16736;DHT22;17990;49.548;9.730;2023-11-22T08:59:47;2.80;99.90
16736;DHT22;17990;49.548;9.730;2023-11-22T09:02:14;2.80;99.90
16736;DHT22;17990;49.548;9.730;2023-11-22T09:04:41;2.70;99.90
16736;DHT22;17990;49.548;9.730;2023-11-22T09:07:08;2.80;99.90
16736;DHT22;17990;49.548;9.730;2023-11-22T09:09:36;2.90;99.90
16736;DHT22;17990;49.548;9.730;2023-11-22T09:12:03;2.90;99.90
16736;DHT22;17990;49.548;9.730;2023-11-22T09:14:38;2.80;99.90
16736;DHT22;17990;49.548;9.730;2023-11-22T09:17:07;2.90;99.90
16736;DHT22;17990;49.548;9.730;2023-11-22T09:19:35;2.90;99.90
16736;DHT22;17990;49.548;9.730;2023-11-22T09:22:02;2.90;99.90
16736;DHT22;17990;49.548;9.730;2023-11-22T09:24:31;2.90;99.90
16736;DHT22;17990;49.548;9.730;2023-11-22T09:26:58;3.00;99.90
16736;DHT22;17990;49.548;9.730;2023-11-22T09:29:26;3.10;99.90
16736;DHT22;17990;49.548;9.730;2023-11-22T09:31:52;3.20;99.90
16736;DHT22;17990;49.548;9.730;2023-11-22T09:34:21;3.30;99.90
16736;DHT22;17990;49.548;9.730;2023-11-22T09:36:48;2.90;99.90
16736;DHT22;17990;49.548;9.730;2023-11-22T09:39:14;2.90;99.90
16736;DHT22;17990;49.548;9.730;2023-11-22T09:41:46;3.00;99.90
16736;DHT22;17990;49.548;9.730;2023-11-22T09:44:13;3.10;99.90
16736;DHT22;17990;49.548;9.730;2023-11-22T09:46:42;3.10;99.90
16736;DHT22;17990;49.548;9.730;2023-11-22T09:49:13;3.20;99.90
16736;DHT22;17990;49.548;9.730;2023-11-22T09:51:44;3.10;99.90
16736;DHT22;17990;49.548;9.730;2023-11-22T09:54:11;3.00;99.90
16736;DHT22;17990;49.548;9.730;2023-11-22T09:56:40;2.90;99.90
16736;DHT22;17990;49.548;9.730;2023-11-22T09:59:16;2.90;99.90
16736;DHT22;17990;49.548;9.730;2023-11-22T10:01:45;3.00;99.90
16736;DHT22;17990;49.548;9.730;2023-11-22T10:04:11;3.20;99.90
16736;DHT22;17990;49.548;9.730;2023-11-22T10:06:38;3.30;99.90
16736;DHT22;17990;49.548;9.730;2023-11-22T10:09:07;3.20;99.90
16736;DHT22;17990;49.548;9.730;2023-11-22T10:11:35;3.20;99.90
16736;DHT22;17990;49.548;9.730;2023-11-22T10:14:04;3.10;99.90
16736;DHT22;17990;49.548;9.730;2023-11-22T10:16:31;3.10;99.90
16736;DHT22;17990;49.548;9.730;2023-11-22T10:18:58;3.10;99.90
16736;DHT22;17990;49.548;9.730;2023-11-22T10:21:25;3.20;99.90
16736;DHT22;17990;49.548;9.730;2023-11-22T10:23:54;3.20;99.90
16736;DHT22;17990;49.548;9.730;2023-11-22T10:26:23;3.30;99.90
16736;DHT22;17990;49.548;9.730;2023-11-22T10:28:51;3.30;99.90
16736;DHT22;17990;49.548;9.730;2023-11-22T10:31:18;3.40;99.90
16736;DHT22;17990;49.548;9.730;2023-11-22T10:33:47;3.40;99.90
16736;DHT22;17990;49.548;9.730;2023-11-22T10:36:15;3.50;99.90
16736;DHT22;17990;49.548;9.730;2023-11-22T10:38:46;3.50;99.90
16736;DHT22;17990;49.548;9.730;2023-11-22T10:41:13;3.50;99.90
16736;DHT22;17990;49.548;9.730;2023-11-22T10:43:41;3.60;99.90
16736;DHT22;17990;49.548;9.730;2023-11-22T10:46:08;3.60;99.90
16736;DHT22;17990;49.548;9.730;2023-11-22T10:48:35;3.60;99.90
16736;DHT22;17990;49.548;9.730;2023-11-22T10:51:03;3.60;99.90
16736;DHT22;17990;49.548;9.730;2023-11-22T10:53:32;3.40;99.90
16736;DHT22;17990;49.548;9.730;2023-11-22T10:56:07;3.30;99.90
16736;DHT22;17990;49.548;9.730;2023-11-22T10:58:45;3.30;99.90
16736;DHT22;17990;49.548;9.730;2023-11-22T11:01:15;3.20;99.90
16736;DHT22;17990;49.548;9.730;2023-11-22T11:03:54;3.20;99.90
16736;DHT22;17990;49.548;9.730;2023-11-22T11:06:26;3.20;99.90
16736;DHT22;17990;49.548;9.730;2023-11-22T11:08:59;3.20;99.90
16736;DHT22;17990;49.548;9.730;2023-11-22T11:11:27;3.30;99.90
16736;DHT22;17990;49.548;9.730;2023-11-22T11:13:56;3.20;99.90
16736;DHT22;17990;49.548;9.730;2023-11-22T11:16:23;3.20;99.90
16736;DHT22;17990;49.548;9.730;2023-11-22T11:18:50;3.30;99.90
16736;DHT22;17990;49.548;9.730;2023-11-22T11:21:17;3.40;99.90
16736;DHT22;17990;49.548;9.730;2023-11-22T11:23:45;3.50;99.90
16736;DHT22;17990;49.548;9.730;2023-11-22T11:26:15;3.30;99.90
16736;DHT22;17990;49.548;9.730;2023-11-22T11:28:44;3.30;99.90
16736;DHT22;17990;49.548;9.730;2023-11-22T11:31:12;3.40;99.90
16736;DHT22;17990;49.548;9.730;2023-11-22T11:33:54;3.50;99.90
16736;DHT22;17990;49.548;9.730;2023-11-22T11:36:23;3.70;99.90
16736;DHT22;17990;49.548;9.730;2023-11-22T11:38:50;3.90;99.90
16736;DHT22;17990;49.548;9.730;2023-11-22T11:41:17;3.80;99.90
16736;DHT22;17990;49.548;9.730;2023-11-22T11:43:45;3.90;99.90
16736;DHT22;17990;49.548;9.730;2023-11-22T11:46:14;3.90;99.90
16736;DHT22;17990;49.548;9.730;2023-11-22T11:48:43;4.10;99.90
16736;DHT22;17990;49.548;9.730;2023-11-22T11:51:13;4.00;99.90
16736;DHT22;17990;49.548;9.730;2023-11-22T11:53:40;3.90;99.90
16736;DHT22;17990;49.548;9.730;2023-11-22T11:56:08;3.90;99.90
16736;DHT22;17990;49.548;9.730;2023-11-22T11:58:35;3.80;99.90
16736;DHT22;17990;49.548;9.730;2023-11-22T12:01:04;3.80;99.90
16736;DHT22;17990;49.548;9.730;2023-11-22T12:03:32;3.60;99.90
16736;DHT22;17990;49.548;9.730;2023-11-22T12:05:59;3.80;99.90
16736;DHT22;17990;49.548;9.730;2023-11-22T12:08:25;3.90;99.90
16736;DHT22;17990;49.548;9.730;2023-11-22T12:10:56;4.00;99.90
16736;DHT22;17990;49.548;9.730;2023-11-22T12:13:24;4.10;99.90
16736;DHT22;17990;49.548;9.730;2023-11-22T12:15:52;4.10;99.90
16736;DHT22;17990;49.548;9.730;2023-11-22T12:18:20;4.10;99.90
16736;DHT22;17990;49.548;9.730;2023-11-22T12:20:55;4.10;99.90
16736;DHT22;17990;49.548;9.730;2023-11-22T12:23:23;4.20;99.90
16736;DHT22;17990;49.548;9.730;2023-11-22T12:25:54;4.20;99.90
16736;DHT22;17990;49.548;9.730;2023-11-22T12:28:22;4.30;99.90
16736;DHT22;17990;49.548;9.730;2023-11-22T12:30:49;4.30;99.90
16736;DHT22;17990;49.548;9.730;2023-11-22T12:33:16;4.30;99.90
16736;DHT22;17990;49.548;9.730;2023-11-22T12:35:45;4.30;99.90
16736;DHT22;17990;49.548;9.730;2023-11-22T12:38:13;4.50;99.90
16736;DHT22;17990;49.548;9.730;2023-11-22T12:40:44;4.40;99.90
16736;DHT22;17990;49.548;9.730;2023-11-22T12:43:12;4.30;99.90
16736;DHT22;17990;49.548;9.730;2023-11-22T12:45:40;4.30;99.90
16736;DHT22;17990;49.548;9.730;2023-11-22T12:48:20;4.20;99.90
16736;DHT22;17990;49.548;9.730;2023-11-22T12:50:49;4.20;99.90
16736;DHT22;17990;49.548;9.730;2023-11-22T12:53:17;4.20;99.90
16736;DHT22;17990;49.548;9.730;2023-11-22T12:55:47;4.20;99.90
16736;DHT22;17990;49.548;9.730;2023-11-22T12:58:14;4.30;99.90
16736;DHT22;17990;49.548;9.730;2023-11-22T13:00:42;4.40;99.90
16736;DHT22;17990;49.548;9.730;2023-11-22T13:03:10;4.50;99.90
16736;DHT22;17990;49.548;9.730;2023-11-22T13:05:37;4.50;99.90
16736;DHT22;17990;49.548;9.730;2023-11-22T13:08:04;4.50;99.90
16736;DHT22;17990;49.548;9.730;2023-11-22T13:10:32;4.50;99.90
16736;DHT22;17990;49.548;9.730;2023-11-22T13:12:59;4.50;99.90
16736;DHT22;17990;49.548;9.730;2023-11-22T13:15:26;4.50;99.90
16736;DHT22;17990;49.548;9.730;2023-11-22T13:17:53;4.50;99.90
16736;DHT22;17990;49.548;9.730;2023-11-22T13:20:22;4.50;99.90
16736;DHT22;17990;49.548;9.730;2023-11-22T13:22:49;4.30;99.90
16736;DHT22;17990;49.548;9.730;2023-11-22T13:25:15;4.20;99.90
16736;DHT22;17990;49.548;9.730;2023-11-22T13:27:46;4.30;99.90
16736;DHT22;17990;49.548;9.730;2023-11-22T13:30:13;4.40;99.90
16736;DHT22;17990;49.548;9.730;2023-11-22T13:32:41;4.40;99.90
16736;DHT22;17990;49.548;9.730;2023-11-22T13:35:09;4.40;99.90
16736;DHT22;17990;49.548;9.730;2023-11-22T13:37:41;4.40;99.90
16736;DHT22;17990;49.548;9.730;2023-11-22T13:40:10;4.40;99.90
16736;DHT22;17990;49.548;9.730;2023-11-22T13:42:41;4.40;99.90
16736;DHT22;17990;49.548;9.730;2023-11-22T13:45:10;4.40;99.90
16736;DHT22;17990;49.548;9.730;2023-11-22T13:47:36;4.50;99.90
16736;DHT22;17990;49.548;9.730;2023-11-22T13:50:04;4.40;99.90
16736;DHT22;17990;49.548;9.730;2023-11-22T13:52:32;4.40;99.90
16736;DHT22;17990;49.548;9.730;2023-11-22T13:54:59;4.40;99.90
16736;DHT22;17990;49.548;9.730;2023-11-22T13:57:27;4.30;99.90
16736;DHT22;17990;49.548;9.730;2023-11-22T13:59:53;4.30;99.90
16736;DHT22;17990;49.548;9.730;2023-11-22T14:02:22;4.40;99.90
16736;DHT22;17990;49.548;9.730;2023-11-22T14:04:48;4.40;99.90
16736;DHT22;17990;49.548;9.730;2023-11-22T14:07:15;4.30;99.90
16736;DHT22;17990;49.548;9.730;2023-11-22T14:09:42;4.30;99.90
16736;DHT22;17990;49.548;9.730;2023-11-22T14:12:12;4.30;99.90
16736;DHT22;17990;49.548;9.730;2023-11-22T14:14:39;4.30;99.90
16736;DHT22;17990;49.548;9.730;2023-11-22T14:17:05;4.30;99.90
16736;DHT22;17990;49.548;9.730;2023-11-22T14:19:33;4.30;99.90
16736;DHT22;17990;49.548;9.730;2023-11-22T14:22:00;4.30;99.90
16736;DHT22;17990;49.548;9.730;2023-11-22T14:24:27;4.20;99.90
16736;DHT22;17990;49.548;9.730;2023-11-22T14:26:55;4.20;99.90
16736;DHT22;17990;49.548;9.730;2023-11-22T14:29:25;4.20;99.90
16736;DHT22;17990;49.548;9.730;2023-11-22T14:31:52;4.20;99.90
16736;DHT22;17990;49.548;9.730;2023-11-22T14:34:19;4.20;99.90
16736;DHT22;17990;49.548;9.730;2023-11-22T14:36:47;4.30;99.90
16736;DHT22;17990;49.548;9.730;2023-11-22T14:39:14;4.30;99.90
16736;DHT22;17990;49.548;9.730;2023-11-22T14:41:41;4.20;99.90
16736;DHT22;17990;49.548;9.730;2023-11-22T14:44:08;4.20;99.90
16736;DHT22;17990;49.548;9.730;2023-11-22T14:46:35;4.20;99.90
16736;DHT22;17990;49.548;9.730;2023-11-22T14:49:02;4.00;99.90
16736;DHT22;17990;49.548;9.730;2023-11-22T14:51:29;4.00;99.90
16736;DHT22;17990;49.548;9.730;2023-11-22T14:53:57;4.00;99.90
16736;DHT22;17990;49.548;9.730;2023-11-22T14:56:24;4.00;99.90
16736;DHT22;17990;49.548;9.730;2023-11-22T14:58:51;4.10;99.90
16736;DHT22;17990;49.548;9.730;2023-11-22T15:01:19;4.10;99.90
16736;DHT22;17990;49.548;9.730;2023-11-22T15:03:47;4.00;99.90
16736;DHT22;17990;49.548;9.730;2023-11-22T15:06:14;4.00;99.90
16736;DHT22;17990;49.548;9.730;2023-11-22T15:08:41;4.00;99.90
16736;DHT22;17990;49.548;9.730;2023-11-22T15:11:09;3.90;99.90
16736;DHT22;17990;49.548;9.730;2023-11-22T15:13:36;3.90;99.90
16736;DHT22;17990;49.548;9.730;2023-11-22T15:16:03;3.90;99.90
16736;DHT22;17990;49.548;9.730;2023-11-22T15:18:30;3.90;99.90
16736;DHT22;17990;49.548;9.730;2023-11-22T15:20:57;3.90;99.90
16736;DHT22;17990;49.548;9.730;2023-11-22T15:23:24;3.80;99.90
16736;DHT22;17990;49.548;9.730;2023-11-22T15:25:54;3.80;99.90
16736;DHT22;17990;49.548;9.730;2023-11-22T15:28:24;3.80;99.90
16736;DHT22;17990;49.548;9.730;2023-11-22T15:30:51;3.80;99.90
16736;DHT22;17990;49.548;9.730;2023-11-22T15:33:21;3.80;99.90
16736;DHT22;17990;49.548;9.730;2023-11-22T15:35:48;3.80;99.90
16736;DHT22;17990;49.548;9.730;2023-11-22T15:38:15;3.80;99.90
16736;DHT22;17990;49.548;9.730;2023-11-22T15:40:42;3.80;99.90
16736;DHT22;17990;49.548;9.730;2023-11-22T15:43:09;3.80;99.90
16736;DHT22;17990;49.548;9.730;2023-11-22T15:45:38;3.80;99.90
16736;DHT22;17990;49.548;9.730;2023-11-22T15:48:06;3.80;99.90